createdAt,value
2022-10-24T04:30:35.738Z,992.50
2022-10-24T04:31:35.703Z,992.36
2022-10-24T04:32:35.674Z,992.47
2022-10-24T04:33:35.643Z,992.43
2022-10-24T04:34:35.628Z,992.42
2022-10-24T04:35:35.648Z,992.43
2022-10-24T04:36:35.630Z,992.38
2022-10-24T04:37:35.599Z,992.37
2022-10-24T04:38:35.583Z,992.39
2022-10-24T04:39:35.561Z,992.36
2022-10-24T04:40:35.580Z,992.33
2022-10-24T04:41:35.599Z,992.35
2022-10-24T04:42:35.556Z,992.38
2022-10-24T04:43:35.541Z,992.38
2022-10-24T04:44:35.517Z,992.38
2022-10-24T04:45:35.518Z,992.35
2022-10-24T04:46:35.542Z,992.36
2022-10-24T04:47:35.532Z,992.29
2022-10-24T04:48:35.471Z,992.26
2022-10-24T04:49:35.460Z,992.33
2022-10-24T04:50:35.445Z,992.35
2022-10-24T04:51:35.446Z,992.42
2022-10-24T04:52:35.454Z,992.41
2022-10-24T04:53:35.448Z,992.37
2022-10-24T04:54:35.409Z,992.41
2022-10-24T04:55:35.407Z,992.43
2022-10-24T04:56:35.382Z,992.49
2022-10-24T04:57:35.396Z,992.45
2022-10-24T04:58:35.387Z,992.51
2022-10-24T04:59:35.361Z,992.47
2022-10-24T05:00:35.375Z,992.51
2022-10-24T05:01:35.414Z,992.52
2022-10-24T05:02:35.442Z,992.50
2022-10-24T05:03:35.313Z,992.50
2022-10-24T05:04:35.301Z,992.52
2022-10-24T05:05:35.288Z,992.42
2022-10-24T05:06:35.276Z,992.29
2022-10-24T05:07:35.263Z,992.44
2022-10-24T05:08:35.274Z,992.41
2022-10-24T05:09:35.238Z,992.41
2022-10-24T05:10:35.237Z,992.36
2022-10-24T05:11:35.220Z,992.32
2022-10-24T05:12:35.245Z,992.42
2022-10-24T05:13:36.795Z,992.30
2022-10-24T05:14:35.188Z,992.34
2022-10-24T05:15:35.212Z,992.34
2022-10-24T05:16:35.160Z,992.41
2022-10-24T05:17:35.178Z,992.30
2022-10-24T05:18:35.152Z,992.32
2022-10-24T05:19:35.147Z,992.40
2022-10-24T05:20:35.182Z,992.37
2022-10-24T05:21:35.114Z,992.37
2022-10-24T05:22:35.136Z,992.35
2022-10-24T05:23:35.093Z,992.37
2022-10-24T05:24:35.073Z,992.37
2022-10-24T05:25:35.072Z,992.42
2022-10-24T05:26:35.107Z,992.39
2022-10-24T05:27:35.069Z,992.39
2022-10-24T05:28:35.058Z,992.36
2022-10-24T05:29:35.959Z,992.38
2022-10-24T05:30:35.012Z,992.34
2022-10-24T05:31:35.070Z,992.44
2022-10-24T05:32:38.744Z,992.49
2022-10-24T05:33:34.979Z,992.57
2022-10-24T05:34:34.984Z,992.57
2022-10-24T05:35:34.995Z,992.58
2022-10-24T05:36:34.959Z,992.54
2022-10-24T05:37:34.940Z,992.54
2022-10-24T05:38:34.973Z,992.55
2022-10-24T05:39:34.915Z,992.62
2022-10-24T05:40:34.903Z,992.62
2022-10-24T05:41:34.897Z,992.59
2022-10-24T05:42:34.888Z,992.64
2022-10-24T05:43:34.891Z,992.67
2022-10-24T05:44:34.875Z,992.58
2022-10-24T05:45:34.847Z,992.58
2022-10-24T05:46:34.847Z,992.71
2022-10-24T05:47:34.848Z,992.68
2022-10-24T05:48:34.818Z,992.64
2022-10-24T05:49:34.835Z,992.68
2022-10-24T05:50:34.989Z,992.68
2022-10-24T05:51:34.788Z,992.67
2022-10-24T05:52:34.778Z,992.69
2022-10-24T05:53:34.776Z,992.66
2022-10-24T05:54:48.404Z,992.68
2022-10-24T05:55:35.770Z,992.69
2022-10-24T05:56:34.751Z,992.69
2022-10-24T05:57:34.751Z,992.88
2022-10-24T05:58:34.720Z,992.82
2022-10-24T05:59:34.699Z,992.82
2022-10-24T06:00:34.697Z,992.74
2022-10-24T06:01:34.803Z,992.70
2022-10-24T06:02:34.834Z,992.76
2022-10-24T06:03:34.674Z,992.78
2022-10-24T06:04:34.643Z,992.74
2022-10-24T06:05:34.679Z,992.70
2022-10-24T06:06:34.639Z,992.76
2022-10-24T06:07:34.621Z,992.75
2022-10-24T06:08:34.603Z,992.69
2022-10-24T06:09:34.599Z,992.73
2022-10-24T06:10:34.615Z,992.76
2022-10-24T06:11:34.591Z,992.73
2022-10-24T06:12:34.592Z,992.81
2022-10-24T06:13:36.245Z,992.79
2022-10-24T06:14:34.544Z,992.77
2022-10-24T06:15:34.529Z,992.70
2022-10-24T06:16:34.529Z,992.68
2022-10-24T06:17:34.507Z,992.59
2022-10-24T06:18:34.509Z,992.65
2022-10-24T06:19:34.487Z,992.63
2022-10-24T06:20:34.494Z,992.66
2022-10-24T06:21:34.484Z,992.67
2022-10-24T06:22:34.471Z,992.65
2022-10-24T06:23:34.435Z,992.71
2022-10-24T06:24:34.428Z,992.77
2022-10-24T06:25:34.510Z,992.81
2022-10-24T06:26:34.411Z,992.80
2022-10-24T06:27:34.398Z,992.79
2022-10-24T06:28:34.393Z,993.00
2022-10-24T06:29:34.377Z,992.84
2022-10-24T06:30:34.408Z,992.84
2022-10-24T06:31:34.363Z,992.97
2022-10-24T06:32:34.359Z,992.81
2022-10-24T06:33:34.330Z,992.85
2022-10-24T06:34:34.354Z,992.86
2022-10-24T06:35:34.320Z,992.82
2022-10-24T06:36:34.361Z,992.81
2022-10-24T06:37:34.301Z,992.85
2022-10-24T06:38:34.317Z,992.75
2022-10-24T06:39:34.277Z,992.83
2022-10-24T06:40:34.283Z,992.87
2022-10-24T06:41:34.259Z,992.94
2022-10-24T06:42:34.292Z,992.96
2022-10-24T06:43:34.249Z,992.95
2022-10-24T06:44:34.233Z,992.91
2022-10-24T06:45:34.199Z,993.10
2022-10-24T06:46:34.204Z,993.00
2022-10-24T06:47:34.205Z,993.02
2022-10-24T06:48:34.165Z,993.10
2022-10-24T06:49:34.160Z,993.18
2022-10-24T06:50:34.151Z,993.09
2022-10-24T06:51:34.154Z,993.06
2022-10-24T06:52:34.136Z,993.08
2022-10-24T06:53:34.149Z,993.22
2022-10-24T06:54:34.118Z,993.12
2022-10-24T06:55:34.088Z,993.13
2022-10-24T06:56:34.101Z,993.18
2022-10-24T06:57:34.072Z,993.14
2022-10-24T06:58:34.058Z,993.11
2022-10-24T06:59:34.138Z,993.11
2022-10-24T07:00:34.030Z,993.13
2022-10-24T07:01:34.155Z,993.10
2022-10-24T07:02:34.106Z,993.14
2022-10-24T07:03:34.000Z,993.11
2022-10-24T07:04:34.029Z,993.15
2022-10-24T07:05:34.010Z,993.13
2022-10-24T07:06:33.973Z,993.20
2022-10-24T07:07:33.958Z,993.21
2022-10-24T07:08:33.963Z,993.18
2022-10-24T07:09:33.956Z,993.17
2022-10-24T07:10:33.950Z,993.14
2022-10-24T07:11:33.930Z,993.13
2022-10-24T07:12:33.904Z,993.17
2022-10-24T07:13:33.888Z,993.16
2022-10-24T07:14:33.902Z,993.19
2022-10-24T07:15:33.888Z,993.21
2022-10-24T07:16:33.856Z,993.24
2022-10-24T07:17:33.859Z,993.23
2022-10-24T07:18:33.841Z,993.29
2022-10-24T07:19:37.215Z,993.28
2022-10-24T07:20:33.882Z,993.28
2022-10-24T07:21:33.834Z,993.33
2022-10-24T07:22:33.796Z,993.26
2022-10-24T07:23:33.806Z,993.26
2022-10-24T07:24:33.778Z,993.35
2022-10-24T07:25:33.764Z,993.36
2022-10-24T07:26:33.787Z,993.38
2022-10-24T07:27:33.743Z,993.44
2022-10-24T07:28:33.741Z,993.41
2022-10-24T07:29:33.726Z,993.42
2022-10-24T07:30:33.730Z,993.43
2022-10-24T07:31:33.695Z,993.40
2022-10-24T07:32:33.714Z,993.38
2022-10-24T07:33:33.677Z,993.34
2022-10-24T07:34:33.675Z,993.38
2022-10-24T07:35:33.679Z,993.31
2022-10-24T07:36:33.644Z,993.31
2022-10-24T07:37:33.665Z,993.32
2022-10-24T07:38:33.647Z,993.34
2022-10-24T07:39:33.641Z,993.40
2022-10-24T07:40:33.601Z,993.38
2022-10-24T07:41:33.603Z,993.32
2022-10-24T07:42:33.660Z,993.33
2022-10-24T07:43:33.576Z,993.27
2022-10-24T07:44:33.601Z,993.33
2022-10-24T07:45:33.553Z,993.37
2022-10-24T07:46:33.533Z,993.41
2022-10-24T07:47:33.533Z,993.46
2022-10-24T07:48:33.520Z,993.40
2022-10-24T07:49:33.803Z,993.52
2022-10-24T07:50:33.535Z,993.48
2022-10-24T07:51:33.482Z,993.50
2022-10-24T07:52:33.477Z,993.52
2022-10-24T07:53:33.460Z,993.51
2022-10-24T07:54:36.448Z,993.51
2022-10-24T07:55:33.457Z,993.53
2022-10-24T07:56:33.439Z,993.51
2022-10-24T07:57:33.419Z,993.58
2022-10-24T07:58:33.423Z,993.52
2022-10-24T07:59:47.802Z,993.57
2022-10-24T08:00:34.416Z,993.62
2022-10-24T08:01:33.474Z,993.68
2022-10-24T08:02:33.436Z,993.67
2022-10-24T08:03:33.381Z,993.63
2022-10-24T08:04:33.346Z,993.60
2022-10-24T08:05:33.364Z,993.64
2022-10-24T08:06:33.322Z,993.54
2022-10-24T08:07:33.333Z,993.51
2022-10-24T08:08:37.063Z,993.61
2022-10-24T08:09:33.353Z,993.74
2022-10-24T08:10:33.286Z,993.70
2022-10-24T08:11:33.283Z,993.72
2022-10-24T08:12:33.308Z,993.75
2022-10-24T08:13:33.248Z,993.75
2022-10-24T08:14:33.274Z,993.80
2022-10-24T08:15:33.230Z,993.79
2022-10-24T08:16:33.232Z,993.81
2022-10-24T08:17:33.215Z,993.83
2022-10-24T08:18:38.538Z,993.77
2022-10-24T08:19:34.214Z,993.82
2022-10-24T08:20:33.179Z,993.82
2022-10-24T08:21:33.202Z,993.86
2022-10-24T08:22:33.188Z,993.81
2022-10-24T08:23:33.157Z,993.80
2022-10-24T08:24:33.138Z,993.88
2022-10-24T08:25:33.119Z,993.86
2022-10-24T08:26:33.131Z,993.87
2022-10-24T08:27:33.168Z,993.85
2022-10-24T08:28:33.176Z,993.78
2022-10-24T08:29:33.083Z,993.84
2022-10-24T08:30:33.078Z,993.74
2022-10-24T08:31:33.063Z,993.83
2022-10-24T08:32:33.063Z,993.86
2022-10-24T08:33:33.022Z,993.90
2022-10-24T08:34:33.080Z,993.88
2022-10-24T08:35:33.035Z,993.88
2022-10-24T08:36:33.062Z,993.88
2022-10-24T08:37:33.083Z,993.83
2022-10-24T08:38:32.979Z,993.81
2022-10-24T08:39:33.012Z,993.79
2022-10-24T08:40:32.984Z,993.84
2022-10-24T08:41:32.945Z,993.78
2022-10-24T08:42:32.971Z,993.81
2022-10-24T08:43:32.942Z,993.80
2022-10-24T08:44:32.961Z,993.75
2022-10-24T08:45:32.919Z,993.70
2022-10-24T08:46:32.951Z,993.69
2022-10-24T08:47:32.938Z,993.69
2022-10-24T08:48:32.886Z,993.66
2022-10-24T08:49:32.869Z,993.67
2022-10-24T08:50:32.868Z,993.64
2022-10-24T08:51:32.854Z,993.63
2022-10-24T08:52:32.840Z,993.67
2022-10-24T08:53:32.818Z,993.63
2022-10-24T08:54:32.819Z,993.54
2022-10-24T08:55:49.738Z,993.54
2022-10-24T08:56:33.813Z,993.64
2022-10-24T08:58:32.785Z,993.66
2022-10-24T08:59:32.756Z,993.63
2022-10-24T09:00:32.767Z,993.65
2022-10-24T09:01:32.927Z,993.62
2022-10-24T09:02:32.878Z,993.51
2022-10-24T09:03:54.511Z,993.67
2022-10-24T09:04:33.703Z,993.68
2022-10-24T09:05:32.700Z,993.68
2022-10-24T09:06:32.690Z,993.63
2022-10-24T09:07:32.668Z,993.66
2022-10-24T09:08:32.702Z,993.71
2022-10-24T09:09:32.641Z,993.64
2022-10-24T09:10:32.704Z,993.69
2022-10-24T09:11:32.616Z,993.67
2022-10-24T09:12:32.632Z,993.72
2022-10-24T09:13:32.603Z,993.70
2022-10-24T09:14:32.638Z,993.70
2022-10-24T09:15:32.564Z,993.72
2022-10-24T09:16:32.612Z,993.69
2022-10-24T09:17:32.567Z,993.65
2022-10-24T09:18:32.606Z,993.75
2022-10-24T09:19:32.527Z,993.73
2022-10-24T09:20:32.516Z,993.61
2022-10-24T09:21:32.524Z,993.70
2022-10-24T09:22:32.510Z,993.74
2022-10-24T09:23:32.544Z,993.78
2022-10-24T09:24:32.487Z,993.83
2022-10-24T09:25:32.479Z,993.75
2022-10-24T09:26:32.459Z,993.76
2022-10-24T09:27:32.450Z,993.76
2022-10-24T09:28:32.460Z,993.84
2022-10-24T09:29:32.460Z,993.74
2022-10-24T09:30:33.458Z,993.80
2022-10-24T09:31:32.403Z,993.78
2022-10-24T09:32:32.460Z,993.76
2022-10-24T09:33:32.384Z,993.79
2022-10-24T09:34:32.383Z,993.76
2022-10-24T09:35:32.388Z,993.82
2022-10-24T09:36:32.352Z,993.82
2022-10-24T09:37:36.558Z,993.81
2022-10-24T09:38:33.394Z,993.91
2022-10-24T09:39:32.343Z,993.90
2022-10-24T09:40:32.325Z,993.95
2022-10-24T09:41:32.343Z,993.91
2022-10-24T09:42:32.287Z,993.91
2022-10-24T09:43:32.292Z,993.92
2022-10-24T09:44:32.262Z,993.89
2022-10-24T09:45:32.285Z,993.94
2022-10-24T09:46:32.256Z,993.95
2022-10-24T09:47:32.221Z,993.96
2022-10-24T09:48:32.278Z,993.99
2022-10-24T09:49:32.221Z,994.01
2022-10-24T09:50:32.217Z,993.98
2022-10-24T09:51:32.190Z,994.04
2022-10-24T09:52:32.185Z,994.01
2022-10-24T09:53:32.235Z,994.11
2022-10-24T09:54:32.171Z,994.05
2022-10-24T09:55:32.151Z,994.13
2022-10-24T09:56:32.148Z,994.10
2022-10-24T09:57:32.126Z,994.06
2022-10-24T09:58:32.119Z,994.05
2022-10-24T09:59:32.138Z,994.09
2022-10-24T10:00:32.189Z,994.09
2022-10-24T10:01:32.194Z,994.12
2022-10-24T10:02:32.079Z,994.21
2022-10-24T10:03:32.083Z,994.13
2022-10-24T10:04:32.107Z,994.19
2022-10-24T10:05:32.080Z,994.22
2022-10-24T10:06:32.073Z,994.23
2022-10-24T10:07:32.018Z,994.19
2022-10-24T10:08:32.027Z,994.21
2022-10-24T10:09:32.020Z,994.19
2022-10-24T10:10:31.991Z,994.25
2022-10-24T10:11:35.076Z,994.22
2022-10-24T10:12:31.967Z,994.28
2022-10-24T10:13:31.975Z,994.21
2022-10-24T10:14:31.966Z,994.20
2022-10-24T10:15:31.934Z,994.24
2022-10-24T10:16:31.916Z,994.21
2022-10-24T10:17:31.910Z,994.21
2022-10-24T10:18:31.913Z,994.22
2022-10-24T10:19:31.911Z,994.28
2022-10-24T10:20:31.904Z,994.28
2022-10-24T10:21:31.862Z,994.33
2022-10-24T10:22:31.905Z,994.30
2022-10-24T10:23:31.839Z,994.37
2022-10-24T10:24:31.906Z,994.30
2022-10-24T10:25:31.840Z,994.35
2022-10-24T10:26:31.831Z,994.40
2022-10-24T10:27:31.889Z,994.40
2022-10-24T10:28:31.788Z,994.41
2022-10-24T10:29:31.779Z,994.44
2022-10-24T10:30:31.780Z,994.39
2022-10-24T10:31:31.818Z,994.46
2022-10-24T10:32:31.748Z,994.48
2022-10-24T10:33:31.824Z,994.47
2022-10-24T10:34:31.729Z,994.52
2022-10-24T10:35:31.718Z,994.47
2022-10-24T10:36:31.706Z,994.50
2022-10-24T10:37:31.687Z,994.51
2022-10-24T10:38:31.730Z,994.49
2022-10-24T10:39:31.684Z,994.49
2022-10-24T10:40:31.651Z,994.51
2022-10-24T10:41:31.643Z,994.51
2022-10-24T10:42:31.642Z,994.57
2022-10-24T10:43:31.712Z,994.63
2022-10-24T10:44:31.631Z,994.60
2022-10-24T10:45:31.594Z,994.52
2022-10-24T10:46:31.641Z,994.66
2022-10-24T10:47:31.634Z,994.60
2022-10-24T10:48:31.563Z,994.67
2022-10-24T10:49:31.551Z,994.65
2022-10-24T10:50:31.542Z,994.63
2022-10-24T10:51:31.546Z,994.63
2022-10-24T10:52:31.557Z,994.71
2022-10-24T10:53:31.516Z,994.67
2022-10-24T10:54:31.518Z,994.67
2022-10-24T10:55:31.494Z,994.59
2022-10-24T10:56:31.481Z,994.62
2022-10-24T10:57:31.514Z,994.62
2022-10-24T10:58:31.482Z,994.56
2022-10-24T10:59:31.459Z,994.69
2022-10-24T11:00:31.478Z,994.73
2022-10-24T11:01:31.535Z,994.67
2022-10-24T11:02:31.556Z,994.69
2022-10-24T11:03:31.435Z,994.65
2022-10-24T11:04:31.432Z,994.68
2022-10-24T11:05:31.411Z,994.60
2022-10-24T11:06:31.418Z,994.67
2022-10-24T11:07:31.394Z,994.75
2022-10-24T11:08:31.383Z,994.69
2022-10-24T11:09:31.361Z,994.74
2022-10-24T11:10:31.350Z,994.73
2022-10-24T11:11:31.320Z,994.71
2022-10-24T11:12:31.302Z,994.74
2022-10-24T11:13:34.090Z,994.75
2022-10-24T11:14:31.335Z,994.69
2022-10-24T11:15:31.346Z,994.78
2022-10-24T11:16:31.273Z,994.73
2022-10-24T11:17:31.296Z,994.74
2022-10-24T11:18:34.489Z,994.76
2022-10-24T11:19:31.251Z,994.82
2022-10-24T11:20:31.246Z,994.80
2022-10-24T11:21:31.222Z,994.77
2022-10-24T11:22:31.199Z,994.84
2022-10-24T11:23:31.276Z,994.83
2022-10-24T11:24:31.204Z,994.81
2022-10-24T11:25:31.215Z,994.80
2022-10-24T11:26:31.182Z,994.84
2022-10-24T11:27:31.164Z,994.91
2022-10-24T11:28:31.137Z,994.88
2022-10-24T11:29:31.153Z,994.92
2022-10-24T11:30:31.128Z,994.93
2022-10-24T11:31:31.105Z,994.83
2022-10-24T11:32:31.095Z,994.85
2022-10-24T11:33:31.142Z,994.86
2022-10-24T11:34:31.106Z,994.87
2022-10-24T11:35:31.165Z,994.88
2022-10-24T11:36:31.054Z,994.84
2022-10-24T11:37:31.039Z,994.81
2022-10-24T11:38:31.057Z,994.76
2022-10-24T11:39:31.095Z,994.91
2022-10-24T11:40:31.012Z,994.79
2022-10-24T11:41:31.008Z,994.74
2022-10-24T11:42:31.005Z,994.81
2022-10-24T11:43:30.994Z,994.87
2022-10-24T11:44:31.008Z,994.77
2022-10-24T11:45:30.984Z,994.83
2022-10-24T11:46:30.949Z,994.79
2022-10-24T11:47:30.934Z,994.77
2022-10-24T11:48:30.917Z,994.76
2022-10-24T11:49:30.994Z,994.72
2022-10-24T11:50:30.931Z,994.80
2022-10-24T11:51:30.903Z,994.74
2022-10-24T11:52:30.912Z,994.75
2022-10-24T11:53:30.878Z,994.69
2022-10-24T11:54:30.862Z,994.74
2022-10-24T11:55:30.846Z,994.73
2022-10-24T11:56:30.842Z,994.77
2022-10-24T11:57:30.827Z,994.80
2022-10-24T11:58:30.853Z,994.73
2022-10-24T11:59:30.831Z,994.79
2022-10-24T12:00:30.804Z,994.69
2022-10-24T12:01:30.820Z,994.76
2022-10-24T12:02:30.847Z,994.78
2022-10-24T12:03:30.778Z,994.70
2022-10-24T12:04:30.749Z,994.64
2022-10-24T12:05:30.836Z,994.68
2022-10-24T12:06:30.740Z,994.62
2022-10-24T12:07:30.724Z,994.63
2022-10-24T12:08:30.729Z,994.65
2022-10-24T12:09:33.553Z,994.65
2022-10-24T12:10:30.707Z,994.63
2022-10-24T12:11:30.689Z,994.61
2022-10-24T12:12:30.665Z,994.65
2022-10-24T12:13:31.432Z,994.64
2022-10-24T12:14:30.701Z,994.65
2022-10-24T12:15:32.212Z,994.66
2022-10-24T12:16:30.667Z,994.69
2022-10-24T12:17:30.654Z,994.65
2022-10-24T12:18:30.606Z,994.66
2022-10-24T12:19:30.595Z,994.73
2022-10-24T12:20:30.600Z,994.68
2022-10-24T12:21:30.675Z,994.74
2022-10-24T12:22:30.670Z,994.71
2022-10-24T12:23:30.578Z,994.72
2022-10-24T12:24:30.554Z,994.69
2022-10-24T12:25:30.576Z,994.74
2022-10-24T12:26:30.571Z,994.63
2022-10-24T12:27:30.501Z,994.62
2022-10-24T12:28:30.541Z,994.72
2022-10-24T12:29:30.484Z,994.68
2022-10-24T12:30:30.504Z,994.78
2022-10-24T12:31:30.493Z,994.81
2022-10-24T12:32:30.490Z,994.83
2022-10-24T12:33:30.466Z,994.88
2022-10-24T12:34:30.460Z,994.86
2022-10-24T12:35:31.601Z,994.86
2022-10-24T12:36:30.443Z,994.81
2022-10-24T12:37:30.400Z,994.85
2022-10-24T12:38:30.394Z,994.87
2022-10-24T12:39:30.525Z,994.76
2022-10-24T12:40:30.363Z,994.72
2022-10-24T12:41:30.368Z,994.76
2022-10-24T12:42:30.364Z,994.76
2022-10-24T12:43:30.352Z,994.75
2022-10-24T12:44:30.348Z,994.70
2022-10-24T12:45:30.333Z,994.69
2022-10-24T12:46:30.336Z,994.65
2022-10-24T12:47:30.312Z,994.70
2022-10-24T12:48:30.293Z,994.76
2022-10-24T12:49:30.268Z,994.70
2022-10-24T12:50:37.829Z,994.73
2022-10-24T12:51:30.247Z,994.65
2022-10-24T12:52:30.269Z,994.75
2022-10-24T12:53:30.223Z,994.71
2022-10-24T12:54:30.206Z,994.72
2022-10-24T12:55:30.207Z,994.74
2022-10-24T12:56:30.251Z,994.74
2022-10-24T12:57:30.185Z,994.72
2022-10-24T12:58:30.217Z,994.70
2022-10-24T12:59:30.222Z,994.72
2022-10-24T13:00:30.175Z,994.67
2022-10-24T13:01:30.313Z,994.72
2022-10-24T13:02:30.213Z,994.68
2022-10-24T13:03:30.139Z,994.79
2022-10-24T13:04:30.277Z,994.69
2022-10-24T13:05:30.103Z,994.64
2022-10-24T13:06:30.084Z,994.71
2022-10-24T13:07:30.104Z,994.63
2022-10-24T13:08:30.144Z,994.71
2022-10-24T13:09:30.085Z,994.73
2022-10-24T13:10:30.117Z,994.66
2022-10-24T13:11:30.072Z,994.66
2022-10-24T13:12:30.031Z,994.75
2022-10-24T13:13:30.210Z,994.79
2022-10-24T13:14:30.041Z,994.66
2022-10-24T13:15:29.999Z,994.70
2022-10-24T13:16:29.984Z,994.79
2022-10-24T13:17:30.066Z,994.73
2022-10-24T13:18:29.975Z,994.66
2022-10-24T13:19:29.961Z,994.71
2022-10-24T13:20:29.939Z,994.69
2022-10-24T13:21:29.973Z,994.76
2022-10-24T13:22:29.940Z,994.77
2022-10-24T13:23:30.089Z,994.76
2022-10-24T13:24:29.931Z,994.77
2022-10-24T13:25:29.927Z,994.78
2022-10-24T13:26:29.911Z,994.75
2022-10-24T13:27:29.896Z,994.70
2022-10-24T13:28:29.929Z,994.71
2022-10-24T13:29:29.878Z,994.75
2022-10-24T13:30:29.871Z,994.77
2022-10-24T13:31:29.855Z,994.67
2022-10-24T13:32:29.886Z,994.74
2022-10-24T13:33:29.799Z,994.74
2022-10-24T13:34:29.833Z,994.74
2022-10-24T13:35:29.841Z,994.69
2022-10-24T13:36:29.770Z,994.72
2022-10-24T13:37:29.789Z,994.66
2022-10-24T13:38:29.751Z,994.76
2022-10-24T13:39:32.059Z,994.69
2022-10-24T13:40:29.745Z,994.71
2022-10-24T13:41:29.735Z,994.69
2022-10-24T13:42:29.786Z,994.75
2022-10-24T13:43:29.767Z,994.78
2022-10-24T13:44:29.698Z,994.71
2022-10-24T13:45:29.706Z,994.70
2022-10-24T13:46:29.693Z,994.66
2022-10-24T13:47:29.740Z,994.66
2022-10-24T13:48:29.726Z,994.72
2022-10-24T13:49:29.655Z,994.72
2022-10-24T13:50:29.682Z,994.68
2022-10-24T13:51:29.619Z,994.71
2022-10-24T13:52:29.602Z,994.70
2022-10-24T13:53:31.003Z,994.71
2022-10-24T13:54:29.609Z,994.71
2022-10-24T13:55:29.660Z,994.73
2022-10-24T13:56:29.782Z,994.70
2022-10-24T13:57:29.576Z,994.68
2022-10-24T13:58:32.516Z,994.70
2022-10-24T13:59:30.590Z,994.67
2022-10-24T14:00:29.790Z,994.65
2022-10-24T14:01:30.073Z,994.70
2022-10-24T14:02:32.221Z,994.68
2022-10-24T14:03:29.555Z,994.70
2022-10-24T14:04:29.864Z,994.76
2022-10-24T14:05:29.484Z,994.93
2022-10-24T14:06:29.565Z,994.82
2022-10-24T14:07:29.440Z,994.78
2022-10-24T14:08:29.721Z,994.84
2022-10-24T14:09:29.414Z,994.98
2022-10-24T14:10:29.421Z,994.92
2022-10-24T14:11:29.392Z,994.96
2022-10-24T14:12:29.397Z,994.94
2022-10-24T14:13:29.369Z,994.95
2022-10-24T14:14:29.399Z,994.89
2022-10-24T14:15:29.352Z,994.93
2022-10-24T14:16:29.389Z,994.95
2022-10-24T14:17:29.399Z,994.95
2022-10-24T14:18:29.345Z,994.95
2022-10-24T14:19:31.780Z,994.95
2022-10-24T14:20:29.288Z,995.00
2022-10-24T14:21:29.290Z,994.99
2022-10-24T14:22:29.346Z,995.01
2022-10-24T14:23:29.254Z,994.99
2022-10-24T14:24:29.276Z,994.97
2022-10-24T14:25:29.232Z,995.01
2022-10-24T14:26:29.305Z,995.04
2022-10-24T14:27:29.270Z,994.98
2022-10-24T14:28:29.215Z,995.00
2022-10-24T14:29:29.208Z,995.02
2022-10-24T14:30:33.637Z,995.08
2022-10-24T14:31:29.232Z,995.11
2022-10-24T14:32:29.170Z,995.14
2022-10-24T14:33:29.266Z,995.12
2022-10-24T14:34:32.615Z,995.07
2022-10-24T14:35:30.172Z,995.11
2022-10-24T14:36:29.127Z,995.12
2022-10-24T14:37:29.160Z,995.18
2022-10-24T14:38:29.142Z,995.14
2022-10-24T14:39:29.100Z,995.15
2022-10-24T14:40:29.084Z,995.17
2022-10-24T14:41:30.050Z,995.17
2022-10-24T14:42:29.050Z,995.20
2022-10-24T14:43:29.073Z,995.20
2022-10-24T14:44:29.025Z,995.23
2022-10-24T14:45:29.027Z,995.16
2022-10-24T14:46:29.003Z,995.20
2022-10-24T14:47:28.994Z,995.23
2022-10-24T14:48:29.042Z,995.20
2022-10-24T14:49:29.077Z,995.21
2022-10-24T14:50:29.068Z,995.30
2022-10-24T14:51:29.079Z,995.30
2022-10-24T14:52:29.053Z,995.34
2022-10-24T14:53:28.978Z,995.25
2022-10-24T14:54:28.939Z,995.25
2022-10-24T14:55:28.914Z,995.26
2022-10-24T14:56:28.998Z,995.22
2022-10-24T14:57:28.927Z,995.15
2022-10-24T14:58:28.878Z,995.11
2022-10-24T14:59:28.886Z,995.14
2022-10-24T15:00:28.899Z,995.19
2022-10-24T15:01:28.909Z,995.17
2022-10-24T15:02:28.836Z,995.17
2022-10-24T15:03:28.819Z,995.16
2022-10-24T15:04:28.855Z,995.18
2022-10-24T15:05:28.861Z,995.17
2022-10-24T15:06:28.874Z,995.19
2022-10-24T15:07:28.800Z,995.27
2022-10-24T15:08:28.891Z,995.20
2022-10-24T15:09:28.765Z,995.21
2022-10-24T15:10:28.811Z,995.25
2022-10-24T15:11:28.748Z,995.22
2022-10-24T15:12:28.759Z,995.24
2022-10-24T15:13:28.786Z,995.28
2022-10-24T15:14:28.703Z,995.27
2022-10-24T15:15:33.971Z,995.29
2022-10-24T15:16:28.715Z,995.34
2022-10-24T15:17:31.658Z,995.30
2022-10-24T15:18:28.750Z,995.32
2022-10-24T15:19:28.659Z,995.27
2022-10-24T15:20:28.719Z,995.27
2022-10-24T15:21:28.651Z,995.31
2022-10-24T15:22:28.648Z,995.31
2022-10-24T15:23:28.610Z,995.30
2022-10-24T15:24:28.628Z,995.32
2022-10-24T15:25:28.616Z,995.33
2022-10-24T15:26:28.590Z,995.31
2022-10-24T15:27:28.557Z,995.36
2022-10-24T15:28:28.559Z,995.37
2022-10-24T15:29:28.558Z,995.39
2022-10-24T15:30:28.549Z,995.36
2022-10-24T15:31:28.521Z,995.36
2022-10-24T15:32:28.524Z,995.35
2022-10-24T15:33:28.531Z,995.34
2022-10-24T15:34:28.510Z,995.36
2022-10-24T15:35:28.481Z,995.35
2022-10-24T15:36:30.779Z,995.36
2022-10-24T15:37:28.649Z,995.29
2022-10-24T15:38:28.457Z,995.31
2022-10-24T15:39:28.440Z,995.30
2022-10-24T15:40:28.453Z,995.30
2022-10-24T15:41:28.468Z,995.28
2022-10-24T15:42:28.450Z,995.33
2022-10-24T15:43:28.412Z,995.33
2022-10-24T15:44:28.400Z,995.29
2022-10-24T15:45:28.403Z,995.30
2022-10-24T15:46:28.468Z,995.35
2022-10-24T15:47:28.376Z,995.34
2022-10-24T15:48:28.345Z,995.31
2022-10-24T15:49:28.365Z,995.33
2022-10-24T15:50:29.650Z,995.32
2022-10-24T15:51:28.318Z,995.37
2022-10-24T15:52:29.641Z,995.39
2022-10-24T15:53:28.309Z,995.45
2022-10-24T15:54:31.220Z,995.42
2022-10-24T15:55:28.350Z,995.42
2022-10-24T15:56:29.142Z,995.41
2022-10-24T15:57:28.241Z,995.42
2022-10-24T15:58:28.263Z,995.39
2022-10-24T15:59:28.229Z,995.41
2022-10-24T16:00:30.178Z,995.37
2022-10-24T16:01:30.268Z,995.40
2022-10-24T16:02:29.656Z,995.33
2022-10-24T16:03:30.630Z,995.31
2022-10-24T16:04:28.187Z,995.37
2022-10-24T16:05:28.151Z,995.35
2022-10-24T16:06:28.148Z,995.37
2022-10-24T16:07:28.155Z,995.33
2022-10-24T16:08:28.169Z,995.32
2022-10-24T16:09:28.162Z,995.36
2022-10-24T16:10:28.131Z,995.39
2022-10-24T16:11:28.140Z,995.42
2022-10-24T16:12:28.110Z,995.36
2022-10-24T16:13:28.072Z,995.43
2022-10-24T16:14:28.070Z,995.41
2022-10-24T16:15:28.183Z,995.44
2022-10-24T16:16:28.061Z,995.49
2022-10-24T16:17:28.057Z,995.49
2022-10-24T16:18:28.040Z,995.39
2022-10-24T16:19:28.021Z,995.41
2022-10-24T16:20:28.013Z,995.42
2022-10-24T16:21:27.982Z,995.43
2022-10-24T16:22:28.002Z,995.46
2022-10-24T16:23:27.969Z,995.53
2022-10-24T16:24:27.975Z,995.51
2022-10-24T16:25:27.950Z,995.51
2022-10-24T16:26:27.957Z,995.47
2022-10-24T16:27:27.950Z,995.50
2022-10-24T16:28:27.927Z,995.52
2022-10-24T16:29:27.918Z,995.52
2022-10-24T16:30:27.987Z,995.50
2022-10-24T16:31:27.885Z,995.53
2022-10-24T16:32:27.938Z,995.52
2022-10-24T16:33:27.867Z,995.55
2022-10-24T16:34:27.852Z,995.58
2022-10-24T16:35:27.841Z,995.60
2022-10-24T16:36:27.854Z,995.59
2022-10-24T16:37:27.854Z,995.63
2022-10-24T16:38:27.806Z,995.71
2022-10-24T16:39:27.794Z,995.62
2022-10-24T16:40:27.817Z,995.62
2022-10-24T16:41:27.782Z,995.60
2022-10-24T16:42:27.756Z,995.62
2022-10-24T16:43:27.768Z,995.64
2022-10-24T16:44:27.740Z,995.68
2022-10-24T16:45:27.724Z,995.71
2022-10-24T16:46:27.744Z,995.68
2022-10-24T16:47:27.727Z,995.72
2022-10-24T16:48:27.688Z,995.70
2022-10-24T16:49:27.717Z,995.75
2022-10-24T16:50:27.692Z,995.74
2022-10-24T16:51:27.708Z,995.80
2022-10-24T16:52:27.645Z,995.73
2022-10-24T16:53:27.643Z,995.77
2022-10-24T16:54:27.665Z,995.75
2022-10-24T16:55:27.663Z,995.74
2022-10-24T16:56:27.607Z,995.71
2022-10-24T16:57:27.633Z,995.73
2022-10-24T16:58:27.589Z,995.68
2022-10-24T16:59:27.571Z,995.66